Time;durP1;ratioP1;P1;durP2;ratioP2;P2;SDS_P1;SDS_P2;PMS_P1;PMS_P2;Temp;Humidity;BMP_temperature;BMP_pressure;BME280_temperature;BME280_humidity;BME280_pressure;Samples;Min_cycle;Max_cycle;Signal;HPM_P1;HPM_P2
2022/12/08 00:01:47;;;;;;;5.12;3.85;;;;;;;1.33;97.18;97539.91;1699216;83;21416;-80
2022/12/08 00:04:13;;;;;;;8.40;4.17;;;;;;;1.35;97.53;97541.81;1687753;85;20945;-77
2022/12/08 00:09:35;;;;;;;5.58;3.10;;;;;;;1.35;97.37;97553.83;1687528;85;21453;-77
2022/12/08 00:12:05;;;;;;;7.28;4.12;;;;;;;1.36;97.37;97554.64;1687818;85;21068;-77
2022/12/08 00:14:41;;;;;;;8.70;4.45;;;;;;;1.34;97.81;97559.41;1665465;86;21000;-78
2022/12/08 00:17:08;;;;;;;7.95;4.60;;;;;;;1.31;97.51;97552.67;1718004;83;21056;-80
2022/12/08 00:19:35;;;;;;;5.87;3.33;;;;;;;1.30;97.81;97558.25;1717948;83;21167;-80
2022/12/08 00:22:02;;;;;;;8.25;4.67;;;;;;;1.29;97.78;97561.45;1718105;82;21081;-77
2022/12/08 00:24:33;;;;;;;9.03;4.70;;;;;;;1.29;97.72;97560.64;1717778;82;21025;-78
2022/12/08 00:27:01;;;;;;;11.63;4.33;;;;;;;1.27;97.55;97566.70;1718030;83;21151;-80
2022/12/08 00:29:27;;;;;;;7.95;4.62;;;;;;;1.28;97.75;97566.98;1717987;82;21009;-80
2022/12/08 00:31:52;;;;;;;9.90;5.08;;;;;;;1.26;97.99;97575.76;1717940;82;21179;-77
2022/12/08 00:34:18;;;;;;;8.40;5.28;;;;;;;1.25;97.94;97578.14;1717892;82;21597;-77
2022/12/08 00:36:44;;;;;;;11.68;4.95;;;;;;;1.23;97.75;97574.89;1713770;82;20901;-80
2022/12/08 00:39:11;;;;;;;11.12;6.00;;;;;;;1.20;97.50;97573.52;1713787;83;21111;-80
2022/12/08 00:44:21;;;;;;;9.65;5.87;;;;;;;1.24;97.70;97557.31;1707412;83;21195;-77
2022/12/08 00:46:47;;;;;;;6.65;3.85;;;;;;;1.23;97.63;97566.89;1729731;83;21555;-80
2022/12/08 00:49:13;;;;;;;10.63;5.22;;;;;;;1.25;97.24;97563.46;1707561;83;20977;-77
2022/12/08 00:51:39;;;;;;;8.43;4.33;;;;;;;1.28;97.07;97564.32;1729872;82;21269;-80
2022/12/08 00:54:05;;;;;;;6.70;3.67;;;;;;;1.29;97.12;97564.12;1707363;84;20887;-80
2022/12/08 00:56:31;;;;;;;9.13;4.62;;;;;;;1.30;97.06;97562.26;1730049;83;21237;-80
2022/12/08 00:58:57;;;;;;;9.58;4.92;;;;;;;1.31;96.97;97566.55;1707431;84;21041;-78
2022/12/08 01:01:23;;;;;;;8.30;4.60;;;;;;;1.32;96.68;97566.31;1723807;82;20878;-80
2022/12/08 01:03:49;;;;;;;10.32;6.20;;;;;;;1.35;96.96;97564.50;1715508;83;20950;-77
2022/12/08 01:06:14;;;;;;;6.40;4.65;;;;;;;1.34;97.07;97565.55;1715932;83;20990;-77
2022/12/08 01:08:40;;;;;;;7.85;4.62;;;;;;;1.29;97.20;97565.45;1715515;83;21148;-78
2022/12/08 01:11:09;;;;;;;7.58;3.75;;;;;;;1.29;97.20;97565.45;1715765;83;20866;-78
2022/12/08 01:13:35;;;;;;;7.85;3.92;;;;;;;1.30;97.16;97575.61;1715222;83;21443;-77
2022/12/08 01:16:01;;;;;;;8.08;5.20;;;;;;;1.28;97.20;97583.85;1715610;83;21134;-77
2022/12/08 01:18:27;;;;;;;7.85;4.95;;;;;;;1.29;97.50;97572.65;1715594;83;21056;-78
2022/12/08 01:20:53;;;;;;;7.40;3.70;;;;;;;1.28;97.12;97575.00;1715708;83;21081;-80
2022/12/08 01:23:19;;;;;;;5.67;3.37;;;;;;;1.32;97.54;97580.19;1715456;83;21572;-77
2022/12/08 01:25:45;;;;;;;6.87;3.85;;;;;;;1.31;97.41;97588.72;1715695;83;20910;-80
2022/12/08 01:28:11;;;;;;;7.53;4.67;;;;;;;1.29;97.75;97585.47;1715562;83;20934;-80
2022/12/08 01:30:38;;;;;;;6.10;3.98;;;;;;;1.27;97.61;97594.20;1715663;83;20879;-80
2022/12/08 01:33:04;;;;;;;8.33;6.55;;;;;;;1.22;97.90;97588.77;1715398;83;21346;-80
2022/12/08 01:35:30;;;;;;;10.95;8.08;;;;;;;1.18;97.97;97590.78;1717049;83;20886;-80
2022/12/08 01:37:56;;;;;;;7.05;4.67;;;;;;;1.10;98.08;97584.73;1702339;84;21025;-77
2022/12/08 01:40:21;;;;;;;7.83;4.22;;;;;;;1.07;97.95;97587.05;1722081;83;20886;-77
2022/12/08 01:42:48;;;;;;;8.25;5.05;;;;;;;1.02;98.08;97585.05;1702453;84;21048;-80
2022/12/08 01:45:27;;;;;;;6.35;4.55;;;;;;;0.96;98.20;97588.66;1721790;83;21089;-77
2022/12/08 01:47:57;;;;;;;6.72;3.72;;;;;;;0.92;98.36;97587.48;1702394;84;21018;-78
2022/12/08 01:50:23;;;;;;;6.58;3.90;;;;;;;0.87;98.42;97594.56;1721866;83;21500;-80
2022/12/08 01:52:54;;;;;;;6.75;4.15;;;;;;;0.81;98.48;97596.27;1702232;84;21431;-77
2022/12/08 01:55:30;;;;;;;10.43;5.30;;;;;;;0.74;98.59;97595.55;1721984;83;21054;-77
2022/12/08 01:58:01;;;;;;;11.12;6.35;;;;;;;0.67;98.68;97597.48;1702306;84;21824;-77
2022/12/08 02:00:27;;;;;;;10.28;6.47;;;;;;;0.60;98.74;97595.42;1722128;83;20974;-80
2022/12/08 02:03:05;;;;;;;11.38;7.17;;;;;;;0.52;98.80;97595.25;1729820;83;20955;-77
2022/12/08 02:05:33;;;;;;;14.03;7.25;;;;;;;0.45;98.81;97595.85;1730206;83;21032;-80
2022/12/08 02:08:03;;;;;;;11.23;6.70;;;;;;;0.36;98.92;97599.87;1730253;83;21469;-80
2022/12/08 02:10:30;;;;;;;13.55;7.42;;;;;;;0.32;99.10;97606.67;1730135;83;21775;-80
2022/12/08 02:12:56;;;;;;;11.38;6.53;;;;;;;0.27;99.14;97607.36;1700296;83;21504;-80
2022/12/08 02:15:37;;;;;;;7.97;5.35;;;;;;;0.24;99.14;97601.94;1730021;83;21043;-77
2022/12/08 02:18:21;;;;;;;9.18;5.62;;;;;;;0.22;99.53;97601.87;1725920;83;21039;-79
2022/12/08 02:20:55;;;;;;;6.47;3.77;;;;;;;0.23;99.95;97608.82;1729670;83;21464;-78
2022/12/08 02:23:32;;;;;;;7.47;4.97;;;;;;;0.26;100.00;97601.22;1729870;83;21853;-77
2022/12/08 02:26:19;;;;;;;7.20;3.40;;;;;;;0.35;100.00;97603.05;1730021;83;21010;-80
2022/12/08 02:29:09;;;;;;;7.20;4.08;;;;;;;0.46;100.00;97603.62;1729988;83;21019;-77
2022/12/08 02:31:55;;;;;;;8.43;4.72;;;;;;;0.52;100.00;97595.25;1730159;83;21451;-80
2022/12/08 02:34:51;;;;;;;8.15;4.00;;;;;;;0.60;100.00;97594.09;1696602;84;21550;-77
2022/12/08 02:37:34;;;;;;;6.28;3.92;;;;;;;0.68;100.00;97593.78;1699636;84;21314;-80
2022/12/08 02:40:23;;;;;;;5.70;4.12;;;;;;;0.78;100.00;97599.40;1694785;84;21040;-80
2022/12/08 02:42:59;;;;;;;10.45;4.87;;;;;;;0.86;100.00;97599.08;1700709;84;21095;-80
2022/12/08 02:45:38;;;;;;;9.85;6.25;;;;;;;0.86;100.00;97600.41;1670732;84;21480;-77
2022/12/08 02:48:05;;;;;;;7.20;4.47;;;;;;;0.87;100.00;97602.03;1699389;84;21055;-77
2022/12/08 02:50:31;;;;;;;8.73;5.25;;;;;;;0.91;100.00;97598.38;1700874;84;21280;-80
2022/12/08 02:52:57;;;;;;;8.73;5.22;;;;;;;0.97;100.00;97596.95;1700689;84;20968;-80
2022/12/08 02:55:28;;;;;;;12.00;6.25;;;;;;;1.00;100.00;97601.02;1715663;83;20984;-78
2022/12/08 02:58:23;;;;;;;9.45;5.72;;;;;;;1.03;100.00;97597.91;1687976;84;21060;-81
2022/12/08 03:00:57;;;;;;;17.05;7.60;;;;;;;1.01;100.00;97591.96;1721184;82;21043;-80
2022/12/08 03:03:45;;;;;;;8.48;5.67;;;;;;;1.00;100.00;97590.34;1715866;83;21053;-78
2022/12/08 03:06:28;;;;;;;6.87;4.80;;;;;;;0.97;100.00;97586.28;1716732;83;21161;-77
2022/12/08 03:09:01;;;;;;;5.80;4.03;;;;;;;0.94;100.00;97596.58;1716515;83;20993;-77
2022/12/08 03:11:40;;;;;;;7.62;4.70;;;;;;;0.89;100.00;97592.47;1742756;82;20995;-77
2022/12/08 03:14:06;;;;;;;7.53;5.17;;;;;;;0.84;100.00;97593.95;1742615;82;21090;-80
2022/12/08 03:16:34;;;;;;;9.53;4.55;;;;;;;0.79;100.00;97593.83;1712401;82;21609;-77
2022/12/08 03:19:08;;;;;;;11.45;6.70;;;;;;;0.74;100.00;97598.21;1713564;82;20963;-77
2022/12/08 03:21:34;;;;;;;14.93;9.10;;;;;;;0.68;100.00;97597.25;1742643;82;21049;-77
2022/12/08 03:24:00;;;;;;;10.00;7.30;;;;;;;0.62;100.00;97594.19;1742709;82;20954;-78
2022/12/08 03:26:46;;;;;;;14.95;7.65;;;;;;;0.56;100.00;97597.22;1743087;82;20915;-80
2022/12/08 03:29:12;;;;;;;23.62;14.10;;;;;;;0.50;100.00;97590.64;1741796;82;21087;-77
2022/12/08 03:31:51;;;;;;;17.10;11.40;;;;;;;0.33;100.00;97588.30;1742947;82;20923;-77
2022/12/08 03:34:17;;;;;;;25.55;16.02;;;;;;;0.22;100.00;97596.54;1742476;82;21522;-77
2022/12/08 03:36:44;;;;;;;20.60;13.30;;;;;;;0.13;100.00;97595.22;1721468;82;20875;-80
2022/12/08 03:39:10;;;;;;;28.73;13.72;;;;;;;0.05;100.00;97590.19;1713183;83;21482;-80
2022/12/08 03:41:36;;;;;;;32.08;11.93;;;;;;;-0.03;100.00;97589.96;1713436;83;21163;-80
2022/12/08 03:44:02;;;;;;;26.15;14.93;;;;;;;-0.09;100.00;97587.66;1712952;83;21502;-80
2022/12/08 03:46:29;;;;;;;20.35;14.07;;;;;;;-0.19;100.00;97587.89;1713387;83;20954;-77
2022/12/08 03:48:55;;;;;;;27.50;18.82;;;;;;;-0.27;100.00;97580.19;1713049;83;21049;-77
2022/12/08 03:51:21;;;;;;;19.57;13.43;;;;;;;-0.33;100.00;97577.91;1713376;83;21478;-77
2022/12/08 03:53:47;;;;;;;30.62;15.45;;;;;;;-0.37;100.00;97578.03;1680347;83;21003;-77
2022/12/08 03:56:29;;;;;;;21.70;15.25;;;;;;;-0.42;100.00;97578.72;1713376;83;20950;-79
2022/12/08 03:58:55;;;;;;;14.85;9.90;;;;;;;-0.44;100.00;97574.11;1713020;83;21509;-80
2022/12/08 04:01:21;;;;;;;20.10;14.25;;;;;;;-0.50;100.00;97577.66;1725993;82;20867;-77
2022/12/08 04:03:47;;;;;;;34.55;21.12;;;;;;;-0.56;100.00;97577.20;1742599;82;21049;-77
2022/12/08 04:06:13;;;;;;;24.10;15.70;;;;;;;-0.60;100.00;97578.66;1742877;82;21130;-78
2022/12/08 04:08:39;;;;;;;19.42;11.50;;;;;;;-0.64;100.00;97572.97;1742780;82;21680;-77
2022/12/08 04:11:05;;;;;;;27.10;16.60;;;;;;;-0.65;100.00;97575.86;1743022;82;21006;-77
2022/12/08 04:13:33;;;;;;;25.12;16.62;;;;;;;-0.68;100.00;97574.45;1742776;82;21470;-80
2022/12/08 04:15:59;;;;;;;25.70;15.83;;;;;;;-0.70;100.00;97568.52;1714189;82;21034;-80
2022/12/08 04:18:25;;;;;;;25.10;15.53;;;;;;;-0.71;100.00;97572.22;1742934;82;21148;-80
2022/12/08 04:20:51;;;;;;;28.85;16.35;;;;;;;-0.75;100.00;97571.04;1742795;82;20891;-80
2022/12/08 04:23:17;;;;;;;36.25;17.55;;;;;;;-0.80;100.00;97570.86;1737765;82;21585;-77
2022/12/08 04:25:43;;;;;;;35.20;16.67;;;;;;;-0.82;100.00;97568.13;1742621;82;21027;-77
2022/12/08 04:28:09;;;;;;;32.67;14.20;;;;;;;-0.82;100.00;97579.59;1742752;82;20966;-77
2022/12/08 04:30:35;;;;;;;40.28;16.70;;;;;;;-0.81;100.00;97580.40;1743027;82;21789;-80
2022/12/08 04:33:01;;;;;;;24.60;13.45;;;;;;;-0.79;100.00;97574.34;1742920;82;20899;-80
2022/12/08 04:35:27;;;;;;;25.70;14.47;;;;;;;-0.78;100.00;97582.09;1736876;82;21053;-80
2022/12/08 04:37:53;;;;;;;24.40;15.18;;;;;;;-0.76;100.00;97576.58;1713260;83;20946;-80
2022/12/08 04:40:19;;;;;;;28.92;16.17;;;;;;;-0.76;100.00;97572.08;1713177;83;20875;-80
2022/12/08 04:42:45;;;;;;;25.95;12.80;;;;;;;-0.73;100.00;97577.47;1713198;83;21053;-80
2022/12/08 04:45:11;;;;;;;29.90;13.72;;;;;;;-0.73;100.00;97573.47;1713234;83;20970;-80
2022/12/08 04:47:37;;;;;;;29.82;15.18;;;;;;;-0.71;100.00;97572.22;1713347;83;21013;-80
2022/12/08 04:50:05;;;;;;;41.92;18.15;;;;;;;-0.69;100.00;97572.80;1713102;83;20946;-78
2022/12/08 04:52:30;;;;;;;33.18;18.70;;;;;;;-0.68;100.00;97569.66;1713330;83;21471;-80
2022/12/08 04:54:56;;;;;;;35.13;18.20;;;;;;;-0.68;100.00;97574.45;1713096;83;21167;-80
2022/12/08 04:57:22;;;;;;;32.63;20.88;;;;;;;-0.64;100.00;97571.64;1713301;83;21042;-78
2022/12/08 04:59:48;;;;;;;40.85;25.48;;;;;;;-0.66;100.00;97570.24;1713034;83;21081;-80
2022/12/08 05:02:14;;;;;;;46.98;27.58;;;;;;;-0.66;100.00;97569.72;1713240;83;21477;-80
2022/12/08 05:04:40;;;;;;;32.40;19.00;;;;;;;-0.67;100.00;97561.45;1712969;83;20998;-77
2022/12/08 05:07:06;;;;;;;27.32;16.77;;;;;;;-0.67;100.00;97562.78;1713500;83;21545;-77
2022/12/08 05:09:32;;;;;;;26.73;17.73;;;;;;;-0.69;100.00;97562.16;1713043;82;20962;-77
2022/12/08 05:11:58;;;;;;;27.90;16.57;;;;;;;-0.70;100.00;97563.71;1713401;83;20962;-80
2022/12/08 05:14:23;;;;;;;21.50;13.62;;;;;;;-0.72;100.00;97556.47;1713111;82;20945;-80
2022/12/08 05:16:49;;;;;;;35.63;11.90;;;;;;;-0.75;100.00;97555.59;1713492;83;20978;-77
2022/12/08 05:19:15;;;;;;;18.42;10.95;;;;;;;-0.77;100.00;97558.96;1713129;82;21318;-78
2022/12/08 05:21:41;;;;;;;28.57;14.60;;;;;;;-0.76;100.00;97573.92;1713372;83;21022;-80
2022/12/08 05:24:07;;;;;;;33.33;18.67;;;;;;;-0.77;100.00;97571.78;1713174;82;21021;-80
2022/12/08 05:26:33;;;;;;;43.42;24.30;;;;;;;-0.80;100.00;97570.05;1713378;83;20898;-79
2022/12/08 05:28:59;;;;;;;54.05;29.52;;;;;;;-0.81;100.00;97559.12;1713094;83;20887;-80
2022/12/08 05:31:25;;;;;;;51.88;25.30;;;;;;;-0.82;100.00;97565.47;1713499;83;21053;-77
2022/12/08 05:33:52;;;;;;;43.60;19.57;;;;;;;-0.87;100.00;97564.27;1713140;82;21081;-80
2022/12/08 05:36:17;;;;;;;49.75;26.17;;;;;;;-0.91;100.00;97559.09;1729395;82;21070;-77
2022/12/08 05:38:44;;;;;;;32.80;19.27;;;;;;;-0.95;100.00;97555.22;1742795;82;20958;-80
2022/12/08 05:41:17;;;;;;;64.85;29.60;;;;;;;-0.92;100.00;97569.44;1742965;82;21032;-77
2022/12/08 05:43:42;;;;;;;54.83;27.62;;;;;;;-0.92;100.00;97560.13;1740439;82;21059;-80
2022/12/08 05:46:09;;;;;;;82.12;34.73;;;;;;;-0.95;100.00;97566.38;1727124;82;20902;-80
2022/12/08 05:48:35;;;;;;;82.22;34.30;;;;;;;-0.97;100.00;97568.45;1725856;82;21022;-77
2022/12/08 05:51:00;;;;;;;52.62;26.50;;;;;;;-0.97;100.00;97576.43;1742628;82;20883;-78
2022/12/08 05:53:26;;;;;;;57.25;29.20;;;;;;;-0.96;100.00;97572.73;1722736;82;21090;-80
2022/12/08 05:55:52;;;;;;;58.17;28.30;;;;;;;-0.96;100.00;97582.05;1713138;83;20981;-78
2022/12/08 05:58:20;;;;;;;59.83;27.73;;;;;;;-0.96;100.00;97578.87;1712806;83;21487;-77
2022/12/08 06:00:46;;;;;;;60.83;32.95;;;;;;;-0.93;100.00;97577.64;1712879;82;21081;-80
2022/12/08 06:03:13;;;;;;;44.80;26.75;;;;;;;-0.90;100.00;97582.00;1713029;82;20950;-77
2022/12/08 06:05:40;;;;;;;65.87;24.18;;;;;;;-0.89;100.00;97584.95;1730118;82;21038;-77
2022/12/08 06:08:07;;;;;;;46.70;25.23;;;;;;;-0.88;100.00;97586.58;1719132;82;22134;-77
2022/12/08 06:10:33;;;;;;;57.08;29.52;;;;;;;-0.84;100.00;97580.84;1720073;82;20927;-77
2022/12/08 06:12:58;;;;;;;61.00;33.58;;;;;;;-0.89;100.00;97584.95;1732221;82;21626;-80
2022/12/08 06:15:24;;;;;;;66.25;38.90;;;;;;;-0.89;100.00;97592.13;1682912;83;20898;-80
2022/12/08 06:17:50;;;;;;;71.33;36.33;;;;;;;-0.90;100.00;97591.31;1714403;83;21512;-80
2022/12/08 06:20:16;;;;;;;60.67;33.92;;;;;;;-0.89;100.00;97594.78;1714061;83;22140;-77
2022/12/08 06:22:42;;;;;;;68.02;36.58;;;;;;;-0.90;100.00;97591.83;1712692;82;20902;-80
2022/12/08 06:25:09;;;;;;;59.93;34.92;;;;;;;-0.89;100.00;97598.77;1727741;82;21051;-81
2022/12/08 06:27:35;;;;;;;79.47;36.03;;;;;;;-0.90;100.00;97598.48;1698869;83;20996;-77
2022/12/08 06:30:00;;;;;;;72.95;34.55;;;;;;;-0.93;100.00;97598.41;1710242;83;20880;-80
2022/12/08 06:32:26;;;;;;;72.85;36.20;;;;;;;-0.94;100.00;97602.09;1702436;84;21070;-77
2022/12/08 06:34:52;;;;;;;65.75;34.13;;;;;;;-0.92;100.00;97600.55;1702089;84;20915;-77
2022/12/08 06:37:18;;;;;;;59.65;30.20;;;;;;;-0.91;100.00;97608.82;1705661;84;20895;-80
2022/12/08 06:39:45;;;;;;;61.02;30.32;;;;;;;-0.89;100.00;97611.55;1702079;84;20946;-80
2022/12/08 06:44:55;;;;;;;60.40;31.80;;;;;;;-0.84;100.00;97616.77;1722523;83;21126;-77
2022/12/08 06:47:21;;;;;;;77.40;37.42;;;;;;;-0.83;100.00;97619.20;1712456;82;20881;-80
2022/12/08 06:49:47;;;;;;;96.00;49.13;;;;;;;-0.80;100.00;97623.27;1730014;82;21006;-77
2022/12/08 06:52:13;;;;;;;84.22;42.13;;;;;;;-0.79;100.00;97619.56;1719435;83;21456;-77
2022/12/08 06:54:39;;;;;;;104.55;47.95;;;;;;;-0.76;100.00;97615.16;1702027;83;20873;-80
2022/12/08 06:57:05;;;;;;;60.98;30.77;;;;;;;-0.71;100.00;97609.47;1729016;81;21862;-80
2022/12/08 06:59:31;;;;;;;97.67;54.90;;;;;;;-0.64;100.00;97611.56;1712887;82;20846;-80
2022/12/08 07:01:56;;;;;;;79.80;42.78;;;;;;;-0.58;100.00;97611.22;1710348;82;21018;-77
2022/12/08 07:04:22;;;;;;;74.95;37.42;;;;;;;-0.50;100.00;97616.27;1711153;82;20837;-80
2022/12/08 07:06:48;;;;;;;54.73;32.67;;;;;;;-0.42;100.00;97621.83;1715021;82;21055;-80
2022/12/08 07:09:14;;;;;;;59.48;34.63;;;;;;;-0.33;100.00;97629.83;1700866;82;21069;-78
2022/12/08 07:11:40;;;;;;;60.83;35.65;;;;;;;-0.30;100.00;97629.38;1720670;81;20954;-80
2022/12/08 07:14:06;;;;;;;50.17;27.87;;;;;;;-0.22;100.00;97632.28;1720361;82;21568;-80
2022/12/08 07:16:32;;;;;;;51.55;26.73;;;;;;;-0.12;100.00;97627.25;1721984;81;20899;-77
2022/12/08 07:18:59;;;;;;;54.60;27.80;;;;;;;-0.05;100.00;97628.00;1725666;80;21565;-80
2022/12/08 07:21:25;;;;;;;50.63;28.02;;;;;;;0.04;100.00;97624.01;1719494;81;21854;-80
2022/12/08 07:23:51;;;;;;;53.20;28.15;;;;;;;0.12;100.00;97617.05;1723352;81;20990;-80
2022/12/08 07:26:16;;;;;;;54.85;31.48;;;;;;;0.16;100.00;97618.22;1721976;80;22739;-80
2022/12/08 07:28:42;;;;;;;44.15;26.17;;;;;;;0.22;100.00;97619.19;1723070;81;20883;-80
2022/12/08 07:31:22;;;;;;;46.23;25.97;;;;;;;0.31;100.00;97623.70;1718778;81;22508;-77
2022/12/08 07:33:49;;;;;;;66.47;34.45;;;;;;;0.38;100.00;97631.10;1704226;81;21141;-78
2022/12/08 07:36:15;;;;;;;84.72;45.25;;;;;;;0.44;100.00;97628.36;1730170;81;20983;-80
2022/12/08 07:38:41;;;;;;;96.82;50.28;;;;;;;0.55;100.00;97632.12;1721926;81;21108;-80
2022/12/08 07:41:15;;;;;;;128.05;59.83;;;;;;;0.62;100.00;97632.03;1703292;81;21062;-77
2022/12/08 07:43:41;;;;;;;129.25;62.03;;;;;;;0.67;100.00;97635.63;1719485;81;21015;-80
2022/12/08 07:46:07;;;;;;;108.40;50.98;;;;;;;0.73;100.00;97642.73;1722966;81;21154;-77
2022/12/08 07:48:33;;;;;;;110.88;53.00;;;;;;;0.77;100.00;97637.76;1715779;81;21026;-77
2022/12/08 07:51:01;;;;;;;104.72;52.03;;;;;;;0.81;100.00;97627.75;1724848;81;21455;-77
2022/12/08 07:53:27;;;;;;;86.02;43.83;;;;;;;0.86;100.00;97631.61;1715230;82;21685;-80
2022/12/08 07:55:53;;;;;;;163.65;73.45;;;;;;;0.88;100.00;97635.67;1723453;82;20993;-77
2022/12/08 07:58:18;;;;;;;109.50;51.37;;;;;;;0.88;100.00;97633.00;1721006;80;21438;-80
2022/12/08 08:00:44;;;;;;;99.70;48.20;;;;;;;0.85;100.00;97630.77;1721741;80;20943;-77
2022/12/08 08:03:10;;;;;;;125.78;55.23;;;;;;;0.79;100.00;97632.52;1721478;81;20919;-77
2022/12/08 08:05:36;;;;;;;128.85;60.83;;;;;;;0.86;100.00;97634.28;1720326;81;21404;-80
2022/12/08 08:08:02;;;;;;;119.22;59.18;;;;;;;0.92;100.00;97623.49;1719029;81;21163;-80
2022/12/08 08:10:28;;;;;;;113.08;53.98;;;;;;;0.96;100.00;97628.69;1716076;80;21207;-80
2022/12/08 08:12:59;;;;;;;102.38;49.03;;;;;;;1.02;100.00;97631.75;1724642;81;21010;-77
2022/12/08 08:15:26;;;;;;;95.05;48.13;;;;;;;1.04;100.00;97625.69;1721186;80;21499;-80
2022/12/08 08:17:52;;;;;;;100.72;52.17;;;;;;;0.93;100.00;97623.78;1727136;80;21065;-80
2022/12/08 08:20:19;;;;;;;97.50;53.25;;;;;;;0.96;100.00;97634.54;1719098;82;20949;-77
2022/12/08 08:22:46;;;;;;;99.15;53.85;;;;;;;0.97;100.00;97624.97;1722763;82;21060;-78
2022/12/08 08:25:13;;;;;;;105.52;56.83;;;;;;;1.01;100.00;97626.65;1701088;83;21073;-77
2022/12/08 08:27:39;;;;;;;122.25;63.40;;;;;;;1.03;100.00;97629.41;1716037;82;21644;-77
2022/12/08 08:30:07;;;;;;;129.10;65.60;;;;;;;1.11;100.00;97620.23;1709224;82;20889;-80
2022/12/08 08:32:33;;;;;;;125.55;66.28;;;;;;;1.12;100.00;97621.36;1695397;82;21084;-77
2022/12/08 08:35:00;;;;;;;106.55;56.05;;;;;;;1.15;100.00;97624.61;1706645;82;21170;-77
2022/12/08 08:37:26;;;;;;;165.30;82.55;;;;;;;1.18;100.00;97622.28;1698947;82;21486;-77
2022/12/08 08:39:52;;;;;;;116.57;59.77;;;;;;;1.16;100.00;97624.38;1722213;81;21101;-81
2022/12/08 08:42:18;;;;;;;125.97;65.08;;;;;;;1.16;100.00;97623.56;1720731;81;21025;-77
2022/12/08 08:44:44;;;;;;;111.90;58.35;;;;;;;1.21;100.00;97623.70;1719557;81;21085;-80
2022/12/08 08:47:10;;;;;;;113.83;53.48;;;;;;;1.27;100.00;97626.24;1727917;81;21154;-77
2022/12/08 08:49:36;;;;;;;97.78;54.18;;;;;;;1.29;100.00;97626.04;1715692;81;20886;-78
2022/12/08 08:52:03;;;;;;;114.62;58.65;;;;;;;1.27;100.00;97626.77;1715581;82;21136;-80
2022/12/08 08:54:29;;;;;;;118.02;61.30;;;;;;;1.30;100.00;97626.33;1723626;82;21119;-81
2022/12/08 08:56:57;;;;;;;93.87;52.55;;;;;;;1.36;100.00;97625.38;1722777;80;20919;-80
2022/12/08 08:59:23;;;;;;;119.77;59.45;;;;;;;1.36;100.00;97626.20;1719326;81;21096;-78
2022/12/08 09:01:49;;;;;;;106.83;54.80;;;;;;;1.37;100.00;97625.70;1717221;81;21048;-77
2022/12/08 09:04:15;;;;;;;104.25;54.35;;;;;;;1.41;100.00;97617.52;1720057;80;20922;-77
2022/12/08 09:06:42;;;;;;;150.40;75.92;;;;;;;1.56;100.00;97620.55;1730306;80;21517;-80
2022/12/08 09:09:08;;;;;;;133.57;68.80;;;;;;;1.56;100.00;97620.55;1715679;81;21558;-80
2022/12/08 09:11:33;;;;;;;131.18;68.47;;;;;;;1.64;100.00;97619.39;1718803;81;21151;-77
2022/12/08 09:13:59;;;;;;;100.87;50.20;;;;;;;1.74;100.00;97614.28;1720420;80;21005;-80
2022/12/08 09:16:25;;;;;;;103.87;53.50;;;;;;;1.86;100.00;97608.39;1718786;81;21362;-77
2022/12/08 09:18:51;;;;;;;123.75;59.45;;;;;;;1.86;100.00;97604.38;1720169;81;21421;-80
2022/12/08 09:21:24;;;;;;;116.90;64.85;;;;;;;1.89;100.00;97598.59;1719772;81;21576;-81
2022/12/08 09:23:55;;;;;;;116.17;62.40;;;;;;;1.91;100.00;97601.02;1720892;82;21749;-77
2022/12/08 09:26:22;;;;;;;106.55;55.50;;;;;;;1.98;100.00;97601.72;1722163;81;20991;-77
2022/12/08 09:28:50;;;;;;;122.98;63.20;;;;;;;1.98;100.00;97593.17;1718004;80;21022;-80
2022/12/08 09:31:17;;;;;;;146.70;72.27;;;;;;;1.98;100.00;97591.84;1719339;81;21109;-80
2022/12/08 09:33:43;;;;;;;167.47;77.42;;;;;;;1.99;100.00;97589.98;1719431;80;21503;-77
2022/12/08 09:36:09;;;;;;;158.75;71.95;;;;;;;2.04;100.00;97583.91;1719923;81;21518;-80
2022/12/08 09:38:37;;;;;;;144.10;71.42;;;;;;;2.04;100.00;97574.03;1722841;80;21053;-81
2022/12/08 09:41:10;;;;;;;132.25;64.80;;;;;;;2.08;100.00;97571.72;1720801;80;21101;-78
2022/12/08 09:44:16;;;;;;;105.87;57.25;;;;;;;2.15;100.00;97573.73;1718994;82;21039;-77
2022/12/08 09:46:42;;;;;;;121.42;61.35;;;;;;;2.19;100.00;97571.67;1704815;81;21686;-80
2022/12/08 09:49:13;;;;;;;105.67;59.42;;;;;;;2.24;100.00;97564.30;1741623;81;21091;-80
2022/12/08 09:51:39;;;;;;;99.07;51.02;;;;;;;2.30;100.00;97563.84;1685114;83;21052;-77
2022/12/08 09:54:11;;;;;;;104.27;56.37;;;;;;;2.31;100.00;97563.64;1722454;81;21026;-77
2022/12/08 09:56:37;;;;;;;105.72;56.20;;;;;;;2.28;100.00;97558.75;1714340;81;21032;-78
2022/12/08 09:59:11;;;;;;;116.90;57.33;;;;;;;2.36;100.00;97562.91;1707237;83;20901;-78
2022/12/08 10:01:40;;;;;;;103.95;57.13;;;;;;;2.36;100.00;97562.91;1710661;82;21112;-80
2022/12/08 10:04:25;;;;;;;107.30;54.58;;;;;;;2.37;100.00;97564.00;1693903;84;20999;-81
2022/12/08 10:07:25;;;;;;;102.38;56.35;;;;;;;2.39;100.00;97561.89;1707461;83;21031;-77
2022/12/08 10:10:27;;;;;;;104.45;54.15;;;;;;;2.39;100.00;97551.20;1705778;81;21423;-80
2022/12/08 10:13:22;;;;;;;127.22;63.92;;;;;;;2.45;100.00;97552.92;1708286;81;21521;-81
2022/12/08 10:16:21;;;;;;;122.62;62.48;;;;;;;2.58;100.00;97549.17;1704930;81;21163;-77
2022/12/08 10:18:46;;;;;;;118.82;57.08;;;;;;;2.67;100.00;97554.41;1683884;85;21057;-80
2022/12/08 10:21:21;;;;;;;149.20;81.30;;;;;;;2.70;100.00;97547.77;1666556;83;21475;-80
2022/12/08 10:23:50;;;;;;;120.77;62.75;;;;;;;2.66;100.00;97547.97;1701053;83;21581;-77
2022/12/08 10:26:18;;;;;;;160.95;86.95;;;;;;;2.69;100.00;97549.63;1732610;82;21115;-81
2022/12/08 10:28:44;;;;;;;185.67;98.40;;;;;;;2.69;100.00;97541.60;1722475;82;21556;-81
2022/12/08 10:31:20;;;;;;;139.60;73.33;;;;;;;2.72;100.00;97538.44;1722665;82;20963;-78
2022/12/08 10:33:48;;;;;;;160.57;80.47;;;;;;;2.79;100.00;97530.27;1711818;82;21561;-77
2022/12/08 10:36:14;;;;;;;155.78;84.52;;;;;;;2.89;100.00;97529.63;1702322;83;21467;-80
2022/12/08 10:38:41;;;;;;;169.93;90.15;;;;;;;2.98;100.00;97523.62;1708315;82;20867;-77
2022/12/08 10:41:13;;;;;;;167.22;89.92;;;;;;;3.06;100.00;97524.55;1699514;82;23014;-80
2022/12/08 10:43:48;;;;;;;175.40;90.87;;;;;;;3.26;100.00;97512.56;1688415;82;21009;-80
2022/12/08 10:46:19;;;;;;;171.65;94.92;;;;;;;3.36;100.00;97517.53;1718495;82;21045;-77
2022/12/08 10:48:57;;;;;;;138.88;76.57;;;;;;;3.53;100.00;97514.83;1698373;82;21018;-78
2022/12/08 10:51:39;;;;;;;107.92;58.40;;;;;;;3.67;100.00;97513.93;1708071;82;21036;-80
2022/12/08 10:54:27;;;;;;;176.78;93.75;;;;;;;3.78;100.00;97502.84;1696412;82;21717;-81
2022/12/08 10:56:54;;;;;;;111.77;60.85;;;;;;;3.86;100.00;97503.75;1717535;82;22212;-77
2022/12/08 10:59:20;;;;;;;98.27;51.40;;;;;;;3.98;100.00;97504.42;1736936;81;21229;-78
2022/12/08 11:01:48;;;;;;;129.97;72.40;;;;;;;4.06;100.00;97503.18;1724725;81;20897;-81
2022/12/08 11:04:25;;;;;;;149.45;79.45;;;;;;;4.09;100.00;97498.11;1710985;81;21118;-81
2022/12/08 11:06:51;;;;;;;134.52;75.90;;;;;;;4.12;100.00;97499.50;1714932;83;21981;-77
2022/12/08 11:09:26;;;;;;;122.67;67.45;;;;;;;4.13;100.00;97503.27;1719923;81;21506;-78
2022/12/08 11:12:02;;;;;;;160.37;81.37;;;;;;;4.15;100.00;97501.14;1705980;82;21492;-78
2022/12/08 11:14:45;;;;;;;184.80;95.38;;;;;;;4.13;100.00;97499.25;1733166;81;21581;-78
2022/12/08 11:17:25;;;;;;;204.20;98.22;;;;;;;4.13;100.00;97495.76;1724262;81;21094;-81
2022/12/08 11:20:05;;;;;;;197.55;96.57;;;;;;;4.14;100.00;97495.50;1721077;81;21165;-78
2022/12/08 11:22:42;;;;;;;173.97;85.75;;;;;;;4.23;100.00;97490.50;1713437;81;20950;-81
2022/12/08 11:25:21;;;;;;;162.07;80.65;;;;;;;4.27;100.00;97482.75;1676871;83;21486;-78
2022/12/08 11:27:48;;;;;;;206.30;95.47;;;;;;;4.28;100.00;97491.91;1701961;81;21007;-78
2022/12/08 11:30:23;;;;;;;200.65;91.97;;;;;;;4.29;100.00;97489.51;1731938;81;21090;-78
2022/12/08 11:32:53;;;;;;;177.27;85.90;;;;;;;4.30;100.00;97486.30;1726365;81;21883;-78
2022/12/08 11:35:30;;;;;;;150.03;70.37;;;;;;;4.29;100.00;97486.02;1718739;81;21060;-81